createdAt,value
2018-04-30T00:02:30.633Z,13.69
2018-04-30T00:05:53.487Z,13.73
2018-04-30T00:09:16.315Z,13.64
2018-04-30T00:12:39.185Z,13.44
2018-04-30T00:16:02.097Z,13.63
2018-04-30T00:19:24.937Z,13.69
2018-04-30T00:22:47.785Z,13.56
2018-04-30T00:26:10.612Z,13.41
2018-04-30T00:29:33.483Z,13.45
2018-04-30T00:32:56.333Z,13.58
2018-04-30T00:36:19.179Z,13.50
2018-04-30T00:39:42.026Z,13.48
2018-04-30T00:43:04.876Z,13.47
2018-04-30T00:46:27.794Z,13.34
2018-04-30T00:49:50.639Z,13.42
2018-04-30T00:53:13.491Z,12.93
2018-04-30T00:56:36.348Z,13.00
2018-04-30T00:59:59.188Z,13.02
2018-04-30T01:03:22.105Z,12.77
2018-04-30T01:06:45.018Z,12.22
2018-04-30T01:10:07.873Z,12.32
2018-04-30T01:13:30.738Z,11.80
2018-04-30T01:16:53.572Z,11.86
2018-04-30T01:20:17.446Z,11.77
2018-04-30T01:23:40.286Z,11.47
2018-04-30T01:27:03.151Z,11.44
2018-04-30T01:30:25.992Z,11.32
2018-04-30T01:33:48.838Z,11.21
2018-04-30T01:37:11.766Z,10.78
2018-04-30T01:40:34.605Z,10.80
2018-04-30T01:43:57.463Z,10.69
2018-04-30T01:47:20.292Z,10.55
2018-04-30T01:50:43.133Z,10.67
2018-04-30T01:54:06.001Z,10.78
2018-04-30T01:57:28.844Z,10.82
2018-04-30T02:00:51.693Z,10.80
2018-04-30T02:04:14.545Z,11.00
2018-04-30T02:07:37.397Z,10.59
2018-04-30T02:11:00.249Z,10.89
2018-04-30T02:14:23.171Z,10.30
2018-04-30T02:17:47.039Z,10.16
2018-04-30T02:21:09.962Z,10.21
2018-04-30T02:24:32.875Z,10.28
2018-04-30T02:27:55.768Z,10.47
2018-04-30T02:31:18.629Z,10.67
2018-04-30T02:34:41.471Z,10.46
2018-04-30T02:38:04.324Z,10.57
2018-04-30T02:41:27.167Z,10.81
2018-04-30T02:44:50.043Z,10.41
2018-04-30T02:48:12.936Z,10.78
2018-04-30T02:51:35.806Z,10.88
2018-04-30T02:54:58.644Z,10.60
2018-04-30T02:58:21.572Z,10.99
2018-04-30T03:01:44.476Z,10.97
2018-04-30T03:05:07.330Z,10.89
2018-04-30T03:08:30.248Z,10.79
2018-04-30T03:11:53.112Z,10.91
2018-04-30T03:15:16.022Z,10.90
2018-04-30T03:18:38.864Z,10.83
2018-04-30T03:22:01.741Z,11.07
2018-04-30T03:25:25.408Z,11.03
2018-04-30T03:28:48.288Z,11.33
2018-04-30T03:32:11.138Z,11.04
2018-04-30T03:35:33.982Z,11.01
2018-04-30T03:38:56.841Z,11.16
2018-04-30T03:42:19.712Z,10.98
2018-04-30T03:45:43.358Z,11.02
2018-04-30T03:49:06.972Z,10.94
2018-04-30T03:52:29.850Z,10.92
2018-04-30T03:55:53.492Z,11.05
2018-04-30T03:59:17.164Z,11.13
2018-04-30T04:06:48.941Z,10.54
2018-04-30T04:10:12.616Z,10.75
2018-04-30T04:13:35.484Z,10.97
2018-04-30T04:16:58.398Z,11.13
2018-04-30T04:20:21.268Z,11.03
2018-04-30T04:23:44.180Z,11.19
2018-04-30T04:27:07.104Z,11.22
2018-04-30T04:30:29.940Z,11.15
2018-04-30T04:33:53.798Z,11.02
2018-04-30T04:37:16.735Z,11.19
2018-04-30T04:40:39.680Z,11.21
2018-04-30T04:44:03.297Z,11.05
2018-04-30T04:47:26.247Z,11.77
2018-04-30T04:50:49.080Z,11.32
2018-04-30T04:54:13.440Z,11.18
2018-04-30T04:57:36.297Z,11.98
2018-04-30T05:00:59.138Z,11.46
2018-04-30T05:04:22.085Z,11.67
2018-04-30T05:07:45.694Z,11.72
2018-04-30T05:11:08.558Z,11.71
2018-04-30T05:14:31.464Z,11.41
2018-04-30T05:17:54.302Z,11.83
2018-04-30T05:21:17.173Z,11.76
2018-04-30T05:24:40.010Z,11.45
2018-04-30T05:28:02.868Z,11.45
2018-04-30T05:31:25.802Z,11.26
2018-04-30T05:34:49.456Z,11.32
2018-04-30T05:38:13.090Z,11.14
2018-04-30T05:41:36.457Z,11.26
2018-04-30T05:45:00.184Z,11.18
2018-04-30T05:48:23.115Z,11.33
2018-04-30T05:51:46.075Z,11.56
2018-04-30T05:55:08.981Z,11.60
2018-04-30T05:58:31.868Z,11.80
2018-04-30T06:01:54.850Z,11.99
2018-04-30T06:05:17.765Z,12.00
2018-04-30T06:08:41.683Z,12.30
2018-04-30T06:12:04.997Z,12.44
2018-04-30T06:15:28.568Z,12.50
2018-04-30T06:18:52.979Z,12.26
2018-04-30T06:22:16.745Z,12.44
2018-04-30T06:25:40.460Z,12.05
2018-04-30T06:29:04.138Z,12.41
2018-04-30T06:32:27.020Z,12.53
2018-04-30T06:35:49.930Z,12.50
2018-04-30T06:39:12.808Z,12.71
2018-04-30T06:42:36.433Z,12.65
2018-04-30T06:45:59.368Z,12.64
2018-04-30T06:49:25.058Z,12.81
2018-04-30T06:52:49.833Z,12.78
2018-04-30T06:56:12.746Z,13.17
2018-04-30T06:59:35.652Z,12.84
2018-04-30T07:02:58.573Z,13.10
2018-04-30T07:06:21.502Z,13.06
2018-04-30T07:09:44.436Z,12.97
2018-04-30T07:13:07.358Z,12.49
2018-04-30T07:16:30.236Z,12.33
2018-04-30T07:19:53.886Z,12.47
2018-04-30T07:23:17.540Z,12.62
2018-04-30T07:26:40.517Z,12.77
2018-04-30T07:30:04.161Z,12.90
2018-04-30T07:33:27.164Z,12.95
2018-04-30T07:36:50.807Z,13.42
2018-04-30T07:40:14.452Z,13.43
2018-04-30T07:43:37.428Z,13.34
2018-04-30T07:47:00.298Z,13.23
2018-04-30T07:50:23.925Z,13.19
2018-04-30T07:53:46.802Z,13.59
2018-04-30T07:57:10.574Z,13.33
2018-04-30T08:00:33.423Z,13.44
2018-04-30T08:03:56.344Z,13.33
2018-04-30T08:07:19.272Z,13.36
2018-04-30T08:10:43.678Z,13.49
2018-04-30T08:14:06.570Z,13.34
2018-04-30T08:17:30.195Z,13.55
2018-04-30T08:20:53.061Z,12.96
2018-04-30T08:24:15.970Z,13.01
2018-04-30T08:27:38.816Z,12.92
2018-04-30T08:31:01.693Z,13.06
2018-04-30T08:34:25.347Z,13.09
2018-04-30T08:37:48.949Z,13.35
2018-04-30T08:41:11.801Z,13.99
2018-04-30T08:44:34.669Z,13.66
2018-04-30T08:47:57.604Z,13.68
2018-04-30T08:51:21.306Z,13.96
2018-04-30T08:54:45.257Z,13.95
2018-04-30T08:58:08.990Z,14.29
2018-04-30T09:01:31.917Z,14.14
2018-04-30T09:04:55.555Z,14.44
2018-04-30T09:08:19.193Z,14.36
2018-04-30T09:11:43.887Z,14.56
2018-04-30T09:15:07.684Z,14.91
2018-04-30T09:18:30.706Z,14.63
2018-04-30T09:21:53.709Z,14.90
2018-04-30T09:25:16.762Z,15.13
2018-04-30T09:28:39.720Z,15.04
2018-04-30T09:32:02.659Z,14.47
2018-04-30T09:35:25.564Z,15.28
2018-04-30T09:38:49.558Z,15.43
2018-04-30T09:42:14.448Z,15.37
2018-04-30T09:45:38.362Z,15.26
2018-04-30T09:49:01.271Z,15.49
2018-04-30T09:52:24.285Z,15.56
2018-04-30T09:55:47.938Z,15.94
2018-04-30T09:59:11.686Z,15.95
2018-04-30T10:02:34.547Z,15.86
2018-04-30T10:05:57.501Z,15.49
2018-04-30T10:09:21.189Z,15.78
2018-04-30T10:12:44.096Z,16.19
2018-04-30T10:16:07.815Z,15.83
2018-04-30T10:19:30.829Z,16.30
2018-04-30T10:22:53.706Z,15.96
2018-04-30T10:26:17.412Z,16.46
2018-04-30T10:29:40.403Z,16.66
2018-04-30T10:33:03.246Z,17.84
2018-04-30T10:40:42.327Z,18.16
2018-04-30T10:44:06.466Z,17.56
2018-04-30T10:47:29.370Z,18.26
2018-04-30T10:50:52.365Z,17.90
2018-04-30T10:54:15.270Z,17.60
2018-04-30T10:57:39.345Z,16.85
2018-04-30T11:01:02.280Z,17.50
2018-04-30T11:04:25.279Z,18.77
2018-04-30T11:07:48.202Z,18.20
2018-04-30T11:11:11.911Z,18.65
2018-04-30T11:14:45.579Z,18.39
2018-04-30T11:18:09.340Z,17.93
2018-04-30T11:21:33.228Z,17.66
2018-04-30T11:24:56.921Z,17.01
2018-04-30T11:28:19.921Z,17.47
2018-04-30T11:31:43.657Z,17.76
2018-04-30T11:35:08.204Z,17.13
2018-04-30T11:38:31.201Z,17.09
2018-04-30T11:41:54.151Z,17.41
2018-04-30T11:45:17.113Z,17.38
2018-04-30T11:48:40.988Z,16.74
2018-04-30T11:52:05.095Z,16.79
2018-04-30T11:55:28.924Z,16.36
2018-04-30T11:58:51.795Z,16.32
2018-04-30T12:02:15.589Z,15.89
2018-04-30T12:05:40.251Z,15.68
2018-04-30T12:09:03.119Z,15.17
2018-04-30T12:12:27.761Z,15.11
2018-04-30T12:15:50.667Z,15.07
2018-04-30T12:19:13.584Z,14.86
2018-04-30T12:22:36.484Z,14.83
2018-04-30T12:26:00.169Z,14.68
2018-04-30T12:29:23.068Z,14.64
2018-04-30T12:32:46.843Z,14.44
2018-04-30T12:36:10.558Z,14.76
2018-04-30T12:39:33.407Z,14.92
2018-04-30T12:42:56.336Z,14.94
2018-04-30T12:46:19.981Z,14.97
2018-04-30T12:49:44.359Z,15.17
2018-04-30T12:53:07.419Z,14.82
2018-04-30T12:56:31.047Z,14.66
2018-04-30T12:59:53.925Z,14.27
2018-04-30T13:03:18.571Z,14.49
2018-04-30T13:06:41.439Z,14.72
2018-04-30T13:10:04.329Z,15.20
2018-04-30T13:13:27.197Z,15.30
2018-04-30T13:16:51.582Z,15.96
2018-04-30T13:20:16.386Z,15.82
2018-04-30T13:23:39.348Z,16.14
2018-04-30T13:27:06.080Z,15.99
2018-04-30T13:30:29.703Z,16.24
2018-04-30T13:33:52.628Z,16.33
2018-04-30T13:37:15.517Z,16.44
2018-04-30T13:40:38.372Z,17.19
2018-04-30T13:44:01.290Z,16.59
2018-04-30T13:47:24.434Z,16.43
2018-04-30T13:50:47.425Z,16.84
2018-04-30T13:54:10.390Z,17.27
2018-04-30T13:57:33.767Z,16.41
2018-04-30T14:00:57.439Z,16.83
2018-04-30T14:04:20.371Z,16.91
2018-04-30T14:07:43.257Z,16.55
2018-04-30T14:11:07.047Z,16.85
2018-04-30T14:14:30.654Z,17.18
2018-04-30T14:17:53.487Z,17.18
2018-04-30T14:21:16.318Z,17.01
2018-04-30T14:24:39.968Z,16.74
2018-04-30T14:28:03.714Z,17.10
2018-04-30T14:31:26.574Z,17.34
2018-04-30T14:34:49.441Z,16.68
2018-04-30T14:38:13.057Z,16.01
2018-04-30T14:41:35.890Z,16.55
2018-04-30T14:44:58.833Z,16.34
2018-04-30T14:48:21.704Z,16.70
2018-04-30T14:51:44.551Z,16.98
2018-04-30T14:55:07.382Z,16.65
2018-04-30T14:58:30.199Z,16.50
2018-04-30T15:01:53.056Z,16.64
2018-04-30T15:05:15.957Z,16.50
2018-04-30T15:08:38.758Z,16.32
2018-04-30T15:12:01.584Z,16.34
2018-04-30T15:15:25.198Z,16.10
2018-04-30T15:18:48.052Z,16.15
2018-04-30T15:22:10.900Z,16.39
2018-04-30T15:25:33.789Z,16.23
2018-04-30T15:28:56.620Z,16.40
2018-04-30T15:32:20.234Z,16.49
2018-04-30T15:35:43.246Z,16.43
2018-04-30T15:39:06.846Z,16.54
2018-04-30T15:42:30.463Z,16.46
2018-04-30T15:45:54.527Z,16.29
2018-04-30T15:49:18.580Z,16.56
2018-04-30T15:52:42.213Z,16.80
2018-04-30T15:56:05.114Z,16.86
2018-04-30T17:22:22.041Z,15.26
2018-04-30T17:25:45.467Z,15.30
2018-04-30T17:29:08.311Z,15.31
2018-04-30T17:32:31.226Z,15.13
2018-04-30T17:35:54.380Z,15.29
2018-04-30T17:39:20.051Z,15.29
2018-04-30T17:42:42.902Z,15.37
2018-04-30T17:46:06.745Z,15.32
2018-04-30T17:49:32.272Z,15.29
2018-04-30T17:52:56.773Z,15.41
2018-04-30T17:56:19.810Z,15.43
2018-04-30T17:59:42.750Z,15.42
2018-04-30T18:03:05.590Z,15.25
2018-04-30T18:06:28.504Z,15.19
2018-04-30T18:09:51.384Z,15.24
2018-04-30T18:13:15.095Z,15.29
2018-04-30T18:16:38.043Z,15.30
2018-04-30T18:20:00.927Z,15.38
2018-04-30T19:46:17.450Z,12.94
2018-04-30T19:49:40.341Z,12.78
2018-04-30T19:53:04.852Z,12.67
2018-04-30T19:56:27.799Z,12.47
2018-04-30T20:29:42.879Z,12.35
2018-04-30T20:33:05.813Z,12.31
2018-04-30T20:36:29.453Z,12.10
2018-04-30T20:39:52.480Z,12.01
2018-04-30T20:43:15.384Z,12.18
2018-04-30T20:46:39.075Z,12.06
2018-04-30T20:50:01.933Z,12.17
2018-04-30T20:53:24.872Z,12.06
2018-04-30T20:56:48.510Z,12.10
2018-04-30T21:00:12.166Z,12.21
2018-04-30T21:03:35.875Z,11.90
2018-04-30T21:06:58.915Z,11.77
2018-04-30T21:10:21.796Z,11.79
2018-04-30T21:13:45.498Z,11.69
2018-04-30T21:17:08.379Z,11.65
2018-04-30T21:20:31.247Z,11.64
2018-04-30T21:23:54.177Z,11.70
2018-04-30T21:27:17.038Z,11.62
2018-04-30T21:30:39.881Z,11.50
2018-04-30T21:34:02.803Z,11.43
2018-04-30T21:37:25.653Z,11.60
2018-04-30T21:40:48.579Z,11.71
2018-04-30T21:44:11.480Z,11.66
2018-04-30T21:47:34.514Z,11.86
2018-04-30T21:50:57.415Z,11.68
2018-04-30T21:54:20.322Z,11.60
2018-04-30T23:20:36.366Z,11.88
2018-04-30T23:23:59.277Z,11.96
2018-04-30T23:27:22.142Z,11.81
2018-04-30T23:30:45.002Z,11.75
2018-04-30T23:34:08.635Z,11.85
2018-04-30T23:37:31.543Z,11.86
2018-04-30T23:40:54.403Z,11.82
2018-04-30T23:44:17.303Z,11.67
2018-04-30T23:47:40.157Z,11.85
2018-04-30T23:51:03.013Z,11.88
2018-04-30T23:54:25.858Z,11.88
2018-04-30T23:57:48.838Z,11.62
